Time;durP1;ratioP1;P1;durP2;ratioP2;P2;SDS_P1;SDS_P2;PMS_P1;PMS_P2;Temp;Humidity;BMP_temperature;BMP_pressure;BME280_temperature;BME280_humidity;BME280_pressure;Samples;Min_cycle;Max_cycle;Signal;HPM_P1;HPM_P2
2021/07/03 00:01:58;;;;;;;7.30;6.00;;;16.60;99.90;;;;;;5070064;28;20275;-76
2021/07/03 00:04:25;;;;;;;6.60;6.10;;;16.50;99.90;;;;;;5070342;28;20188;-76
2021/07/03 00:06:51;;;;;;;8.10;6.50;;;16.40;99.90;;;;;;5085954;28;20230;-77
2021/07/03 00:09:17;;;;;;;7.10;6.37;;;16.30;99.90;;;;;;5070457;28;20924;-76
2021/07/03 00:11:43;;;;;;;7.40;6.03;;;16.20;99.90;;;;;;5068784;28;20188;-76
2021/07/03 00:14:10;;;;;;;6.00;5.50;;;16.10;99.90;;;;;;5068711;28;20999;-77
2021/07/03 00:16:36;;;;;;;6.37;5.87;;;16.10;99.90;;;;;;5069376;28;20822;-77
2021/07/03 00:19:02;;;;;;;6.47;5.90;;;16.00;99.90;;;;;;5069393;28;20434;-77
2021/07/03 00:21:28;;;;;;;5.67;5.17;;;16.10;99.90;;;;;;5070865;28;20419;-76
2021/07/03 00:23:54;;;;;;;7.47;6.03;;;16.00;99.90;;;;;;5083367;28;20939;-76
2021/07/03 00:26:20;;;;;;;6.17;5.57;;;16.00;99.90;;;;;;5070927;28;20464;-76
2021/07/03 00:28:45;;;;;;;6.53;5.77;;;15.90;99.90;;;;;;5085913;28;20184;-76
2021/07/03 00:31:11;;;;;;;6.00;5.40;;;15.90;99.90;;;;;;5070038;28;20618;-76
2021/07/03 00:33:37;;;;;;;7.93;6.37;;;15.80;99.90;;;;;;5070259;28;20197;-77
2021/07/03 00:36:03;;;;;;;6.67;5.90;;;15.70;99.90;;;;;;5070367;28;20181;-77
2021/07/03 00:38:28;;;;;;;6.77;5.60;;;15.60;99.90;;;;;;5069391;28;20184;-76
2021/07/03 00:40:54;;;;;;;6.83;5.43;;;15.70;99.90;;;;;;5071044;28;20503;-77
2021/07/03 00:43:20;;;;;;;6.67;6.07;;;15.60;99.90;;;;;;5068475;28;20254;-76
2021/07/03 00:45:46;;;;;;;7.30;5.90;;;15.60;99.90;;;;;;5070373;28;20212;-77
2021/07/03 00:48:12;;;;;;;6.23;5.70;;;15.50;99.90;;;;;;5071285;28;20195;-77
2021/07/03 00:50:37;;;;;;;7.07;5.90;;;15.50;99.90;;;;;;5069268;28;20196;-76
2021/07/03 00:53:03;;;;;;;5.60;5.10;;;15.40;99.90;;;;;;5070796;28;20755;-76
2021/07/03 00:55:29;;;;;;;5.60;5.10;;;15.20;99.90;;;;;;5085864;28;20188;-76
2021/07/03 00:57:55;;;;;;;6.60;6.00;;;15.10;99.90;;;;;;5069965;28;20181;-76
2021/07/03 01:00:22;;;;;;;6.27;5.73;;;15.10;99.90;;;;;;5065291;28;20483;-76
2021/07/03 01:02:48;;;;;;;7.70;6.30;;;15.10;99.90;;;;;;5068544;28;20442;-76
2021/07/03 01:05:15;;;;;;;5.70;5.30;;;15.20;99.90;;;;;;5069871;28;20419;-77
2021/07/03 01:07:41;;;;;;;5.57;5.07;;;15.20;99.90;;;;;;5073012;28;20195;-76
2021/07/03 01:10:20;;;;;;;6.10;5.50;;;15.10;99.90;;;;;;5073686;28;20454;-76
2021/07/03 01:12:46;;;;;;;6.90;6.20;;;15.10;99.90;;;;;;5070665;28;20181;-76
2021/07/03 01:15:12;;;;;;;6.90;6.30;;;15.00;99.90;;;;;;5073640;28;20502;-77
2021/07/03 01:17:38;;;;;;;5.80;5.30;;;15.00;99.90;;;;;;5074980;28;20426;-76
2021/07/03 01:20:05;;;;;;;6.03;5.53;;;14.90;99.90;;;;;;5073862;28;20453;-76
2021/07/03 01:22:32;;;;;;;6.67;5.87;;;14.80;99.90;;;;;;5069743;28;20185;-76
2021/07/03 01:24:58;;;;;;;8.67;6.00;;;14.80;99.90;;;;;;5088878;28;20431;-76
2021/07/03 01:27:24;;;;;;;6.43;5.93;;;14.80;99.90;;;;;;5072307;28;20430;-76
2021/07/03 01:29:49;;;;;;;7.53;5.90;;;14.80;99.90;;;;;;5073231;28;20454;-76
2021/07/03 01:32:15;;;;;;;7.83;6.40;;;14.80;99.90;;;;;;5088585;28;20189;-76
2021/07/03 01:34:41;;;;;;;6.43;5.73;;;14.80;99.90;;;;;;5069766;28;20275;-76
2021/07/03 01:37:06;;;;;;;6.20;5.60;;;14.70;99.90;;;;;;5072261;28;20176;-76
2021/07/03 01:39:32;;;;;;;6.30;5.70;;;14.70;99.90;;;;;;5074665;28;20169;-76
2021/07/03 01:41:58;;;;;;;6.67;6.07;;;14.50;99.90;;;;;;5072530;28;20657;-76
2021/07/03 01:44:25;;;;;;;8.80;7.90;;;14.50;99.90;;;;;;5072886;28;20185;-76
2021/07/03 01:46:53;;;;;;;8.60;7.37;;;14.50;99.90;;;;;;5071642;28;20892;-76
2021/07/03 01:49:19;;;;;;;7.07;6.40;;;14.40;99.90;;;;;;5072813;28;20906;-76
2021/07/03 01:51:44;;;;;;;7.03;6.33;;;14.30;99.90;;;;;;5072126;28;20454;-76
2021/07/03 01:54:10;;;;;;;6.80;6.10;;;14.30;99.90;;;;;;5089037;28;20492;-76
2021/07/03 01:56:40;;;;;;;6.27;5.63;;;14.30;99.90;;;;;;5072036;28;20212;-76
2021/07/03 01:59:05;;;;;;;7.23;6.47;;;14.20;99.90;;;;;;5073869;28;20173;-76
2021/07/03 02:01:31;;;;;;;7.47;6.77;;;14.00;99.90;;;;;;5071029;28;20439;-76
2021/07/03 02:03:57;;;;;;;8.00;7.20;;;14.00;99.90;;;;;;5085061;28;20188;-76
2021/07/03 02:06:22;;;;;;;7.13;6.40;;;14.00;99.90;;;;;;5071467;28;20259;-76
2021/07/03 02:08:48;;;;;;;7.03;5.67;;;14.10;99.90;;;;;;5072805;28;20188;-76
2021/07/03 02:11:13;;;;;;;6.30;5.70;;;14.10;99.90;;;;;;5071085;28;20578;-76
2021/07/03 02:13:39;;;;;;;7.23;6.23;;;14.00;99.90;;;;;;5072669;28;20179;-76
2021/07/03 02:16:05;;;;;;;6.23;5.70;;;14.00;99.90;;;;;;5073181;28;20184;-76
2021/07/03 02:18:31;;;;;;;6.90;6.30;;;13.90;99.90;;;;;;5071006;28;20181;-76
2021/07/03 02:20:56;;;;;;;6.13;5.53;;;13.90;99.90;;;;;;5089896;28;20188;-76
2021/07/03 02:23:22;;;;;;;6.93;6.13;;;13.80;99.90;;;;;;5068560;28;20192;-76
2021/07/03 02:25:48;;;;;;;6.83;6.10;;;13.90;99.90;;;;;;5070645;28;20276;-76
2021/07/03 02:28:14;;;;;;;5.87;5.37;;;13.80;99.90;;;;;;5072316;28;20614;-76
2021/07/03 02:30:40;;;;;;;6.30;5.67;;;13.80;99.90;;;;;;5070711;28;20585;-76
2021/07/03 02:33:06;;;;;;;6.37;5.77;;;13.80;99.90;;;;;;5072389;28;20439;-76
2021/07/03 02:35:32;;;;;;;5.70;5.27;;;13.70;99.90;;;;;;5073991;28;20774;-76
2021/07/03 02:37:58;;;;;;;10.57;5.90;;;13.70;99.90;;;;;;5071385;28;20526;-76
2021/07/03 02:40:25;;;;;;;6.83;6.23;;;13.80;99.90;;;;;;5071912;28;20606;-76
2021/07/03 02:42:51;;;;;;;6.20;5.60;;;13.80;99.90;;;;;;5088486;28;20523;-75
2021/07/03 02:45:18;;;;;;;8.60;6.50;;;13.60;99.90;;;;;;5072305;28;20529;-76
2021/07/03 02:47:44;;;;;;;7.80;6.60;;;13.50;99.90;;;;;;5088959;28;20203;-76
2021/07/03 02:50:13;;;;;;;7.30;6.47;;;13.50;99.90;;;;;;5069971;28;20465;-76
2021/07/03 02:52:40;;;;;;;8.30;5.80;;;13.50;99.90;;;;;;5068737;28;20792;-76
2021/07/03 02:55:07;;;;;;;6.50;5.27;;;13.40;99.90;;;;;;5087932;28;20430;-76
2021/07/03 02:57:33;;;;;;;9.70;5.60;;;13.30;99.90;;;;;;5071185;28;20911;-76
2021/07/03 02:59:59;;;;;;;8.30;6.07;;;13.10;99.90;;;;;;5086255;28;20970;-76
2021/07/03 03:02:24;;;;;;;6.10;5.60;;;13.10;99.90;;;;;;5068748;28;20434;-76
2021/07/03 03:04:50;;;;;;;7.60;6.27;;;13.20;99.90;;;;;;5071695;28;20169;-76
2021/07/03 03:07:16;;;;;;;6.23;5.63;;;13.20;99.90;;;;;;5073351;28;20625;-76
2021/07/03 03:09:41;;;;;;;6.20;5.60;;;13.10;99.90;;;;;;5070556;28;20177;-76
2021/07/03 03:12:07;;;;;;;6.73;5.50;;;13.00;99.90;;;;;;5072077;28;20204;-76
2021/07/03 03:14:33;;;;;;;6.20;5.60;;;12.90;99.90;;;;;;5072056;28;20180;-76
2021/07/03 03:16:59;;;;;;;7.63;5.83;;;12.90;99.90;;;;;;5087054;28;20262;-76
2021/07/03 03:19:25;;;;;;;6.17;5.60;;;13.00;99.90;;;;;;5072124;28;20639;-76
2021/07/03 03:21:50;;;;;;;7.80;7.00;;;12.90;99.90;;;;;;5071825;28;20229;-76
2021/07/03 03:24:17;;;;;;;6.73;6.03;;;12.90;99.90;;;;;;5071203;28;20411;-76
2021/07/03 03:26:43;;;;;;;6.43;5.83;;;12.90;99.90;;;;;;5070660;28;21242;-75
2021/07/03 03:29:09;;;;;;;6.27;5.67;;;12.90;99.90;;;;;;5071205;28;20518;-76
2021/07/03 03:31:35;;;;;;;5.67;5.17;;;12.90;99.90;;;;;;5068851;28;20300;-76
2021/07/03 03:34:00;;;;;;;6.30;5.70;;;12.90;99.90;;;;;;5071876;28;20475;-76
2021/07/03 03:36:26;;;;;;;6.03;5.47;;;12.90;99.90;;;;;;5071762;28;20692;-76
2021/07/03 03:38:52;;;;;;;7.60;5.70;;;12.80;99.90;;;;;;5072529;28;20793;-76
2021/07/03 03:41:20;;;;;;;6.87;5.60;;;12.80;99.90;;;;;;5069546;28;20227;-76
2021/07/03 03:43:46;;;;;;;7.13;6.43;;;12.80;99.90;;;;;;5071209;28;20237;-76
2021/07/03 03:46:11;;;;;;;6.47;5.97;;;12.80;99.90;;;;;;5069888;28;20784;-76
2021/07/03 03:48:37;;;;;;;6.40;5.80;;;12.80;99.90;;;;;;5072693;28;20461;-76
2021/07/03 03:51:03;;;;;;;7.10;6.20;;;12.80;99.90;;;;;;5084027;28;20200;-76
2021/07/03 03:53:29;;;;;;;7.60;6.07;;;12.80;99.90;;;;;;5070652;28;20606;-76
2021/07/03 03:55:54;;;;;;;5.77;5.27;;;12.80;99.90;;;;;;5070294;28;20184;-75
2021/07/03 03:58:20;;;;;;;6.50;5.73;;;12.80;99.90;;;;;;5066513;28;20590;-76
2021/07/03 04:00:46;;;;;;;6.70;6.10;;;12.80;99.90;;;;;;5069778;28;20188;-75
2021/07/03 04:03:12;;;;;;;6.60;5.90;;;12.70;99.90;;;;;;5086100;28;20272;-75
2021/07/03 04:05:37;;;;;;;7.27;6.33;;;12.80;99.90;;;;;;5070084;28;20438;-75
2021/07/03 04:08:04;;;;;;;7.60;6.83;;;12.80;99.90;;;;;;5070466;28;20588;-76
2021/07/03 04:10:30;;;;;;;7.20;6.60;;;12.80;99.90;;;;;;5071072;28;20213;-76
2021/07/03 04:12:56;;;;;;;8.50;7.20;;;12.90;99.90;;;;;;5085998;28;20429;-76
2021/07/03 04:15:21;;;;;;;6.17;5.60;;;12.90;99.90;;;;;;5069840;28;20196;-76
2021/07/03 04:17:47;;;;;;;10.80;6.77;;;12.90;99.90;;;;;;5069939;28;20172;-75
2021/07/03 04:20:13;;;;;;;6.97;6.20;;;13.00;99.90;;;;;;5069757;28;20207;-76
2021/07/03 04:22:39;;;;;;;6.40;5.80;;;13.00;99.90;;;;;;5070510;28;20263;-76
2021/07/03 04:25:07;;;;;;;9.77;7.20;;;13.10;99.90;;;;;;5068889;28;20586;-76
2021/07/03 04:27:35;;;;;;;11.47;7.00;;;13.10;99.90;;;;;;5070190;28;20426;-76
2021/07/03 04:30:01;;;;;;;8.70;7.67;;;13.10;99.90;;;;;;5069879;28;20430;-75
2021/07/03 04:32:26;;;;;;;8.53;7.07;;;13.10;99.90;;;;;;5070008;28;20427;-76
2021/07/03 04:34:52;;;;;;;6.30;5.80;;;13.20;99.90;;;;;;5069171;28;20441;-76
2021/07/03 04:37:18;;;;;;;7.63;6.40;;;13.20;99.90;;;;;;5071537;28;20267;-76
2021/07/03 04:39:43;;;;;;;7.50;6.80;;;13.30;99.90;;;;;;5070414;28;20179;-76
2021/07/03 04:42:09;;;;;;;7.63;6.20;;;13.30;99.90;;;;;;5071746;28;20636;-75
2021/07/03 04:44:35;;;;;;;7.90;7.20;;;13.40;99.90;;;;;;5075763;28;20188;-76
2021/07/03 04:47:01;;;;;;;8.17;7.20;;;13.40;99.90;;;;;;5071439;28;20234;-76
2021/07/03 04:49:31;;;;;;;9.23;8.20;;;13.50;99.90;;;;;;5074008;28;20260;-76
2021/07/03 04:51:57;;;;;;;8.77;7.73;;;13.50;99.90;;;;;;5073686;28;20201;-75
2021/07/03 04:54:23;;;;;;;15.97;12.33;;;13.60;99.90;;;;;;5074150;28;20445;-75
2021/07/03 04:56:48;;;;;;;16.33;12.30;;;13.80;99.90;;;;;;5072217;28;20644;-76
2021/07/03 04:59:14;;;;;;;11.73;10.07;;;14.00;99.90;;;;;;5072795;28;20807;-75
2021/07/03 05:01:40;;;;;;;12.90;11.60;;;14.10;99.90;;;;;;5072026;28;20641;-76
2021/07/03 05:04:05;;;;;;;12.07;10.60;;;14.10;99.90;;;;;;5075039;28;20184;-76
2021/07/03 05:06:31;;;;;;;12.60;11.33;;;14.20;99.90;;;;;;5071291;28;20180;-75
2021/07/03 05:08:56;;;;;;;12.80;11.50;;;14.20;99.90;;;;;;5089983;28;20694;-76
2021/07/03 05:11:22;;;;;;;17.43;13.07;;;14.30;99.90;;;;;;5070832;28;20789;-76
2021/07/03 05:13:48;;;;;;;13.47;10.27;;;14.30;99.90;;;;;;5073551;28;20218;-76
2021/07/03 05:16:14;;;;;;;18.57;10.23;;;14.40;99.90;;;;;;5072328;28;20182;-76
2021/07/03 05:18:39;;;;;;;16.33;12.80;;;14.40;99.90;;;;;;5074786;28;20501;-76
2021/07/03 05:21:05;;;;;;;13.10;11.10;;;14.50;99.90;;;;;;5070412;28;20184;-76
2021/07/03 05:23:31;;;;;;;12.83;11.50;;;14.50;99.90;;;;;;5067016;28;20215;-76
2021/07/03 05:25:57;;;;;;;19.03;13.23;;;14.60;99.90;;;;;;5070825;28;20180;-76
2021/07/03 05:28:24;;;;;;;18.47;13.10;;;14.60;99.90;;;;;;5069879;28;20180;-76
2021/07/03 05:30:50;;;;;;;16.77;13.30;;;14.80;99.90;;;;;;5071408;28;20587;-76
2021/07/03 05:33:16;;;;;;;14.00;12.40;;;14.80;99.90;;;;;;5070278;28;20452;-76
2021/07/03 05:35:42;;;;;;;16.90;13.30;;;14.90;99.90;;;;;;5064079;28;20594;-76
2021/07/03 05:38:08;;;;;;;17.23;14.50;;;14.90;99.90;;;;;;5074011;28;20181;-76
2021/07/03 05:40:35;;;;;;;12.37;11.00;;;15.00;99.90;;;;;;5073512;28;20504;-76
2021/07/03 05:43:00;;;;;;;18.07;12.50;;;15.00;99.90;;;;;;5072602;28;20430;-76
2021/07/03 05:45:26;;;;;;;20.03;15.07;;;15.00;99.90;;;;;;5072369;28;20185;-76
2021/07/03 05:47:52;;;;;;;20.83;14.83;;;15.10;99.90;;;;;;5072771;28;20200;-76
2021/07/03 05:50:23;;;;;;;18.90;14.50;;;15.20;99.90;;;;;;5088207;28;20204;-76
2021/07/03 05:52:50;;;;;;;16.67;13.43;;;15.30;99.90;;;;;;5070985;28;20892;-76
2021/07/03 05:55:17;;;;;;;19.50;16.23;;;15.30;99.90;;;;;;5071436;28;20422;-76
2021/07/03 05:57:42;;;;;;;16.93;13.60;;;15.20;99.90;;;;;;5073589;28;20445;-76
2021/07/03 06:00:10;;;;;;;18.70;14.47;;;15.30;99.90;;;;;;5072336;28;20419;-76
2021/07/03 06:02:36;;;;;;;12.60;11.30;;;15.40;99.90;;;;;;5073730;28;20196;-76
2021/07/03 06:05:03;;;;;;;16.53;14.80;;;15.40;99.90;;;;;;5072608;28;20430;-77
2021/07/03 06:07:28;;;;;;;18.17;14.10;;;15.40;99.90;;;;;;5089558;28;20244;-76
2021/07/03 06:09:54;;;;;;;19.40;15.70;;;15.50;99.90;;;;;;5073939;28;20803;-75
2021/07/03 06:12:20;;;;;;;17.13;13.97;;;15.50;99.90;;;;;;5069256;28;20212;-76
2021/07/03 06:14:46;;;;;;;16.60;14.80;;;15.60;99.90;;;;;;5073167;28;20187;-76
2021/07/03 06:17:14;;;;;;;16.20;14.07;;;15.70;99.90;;;;;;5088930;28;20172;-76
2021/07/03 06:19:44;;;;;;;21.77;15.20;;;15.80;99.90;;;;;;5073502;28;20818;-76
2021/07/03 06:22:12;;;;;;;17.30;13.27;;;15.90;99.90;;;;;;5071846;28;20426;-75
2021/07/03 06:24:41;;;;;;;14.63;13.03;;;15.90;99.90;;;;;;5072663;28;20779;-76
2021/07/03 06:27:08;;;;;;;12.90;11.50;;;16.00;99.90;;;;;;5071000;28;21263;-76
2021/07/03 06:29:34;;;;;;;14.23;12.17;;;16.20;99.90;;;;;;5072052;28;20415;-76
2021/07/03 06:32:01;;;;;;;11.17;10.07;;;16.30;99.90;;;;;;5071269;28;20466;-76
2021/07/03 06:34:27;;;;;;;16.20;10.40;;;16.30;99.90;;;;;;5072836;28;20446;-76
2021/07/03 06:36:52;;;;;;;10.90;9.80;;;16.40;99.90;;;;;;5072976;28;20429;-76
2021/07/03 06:39:19;;;;;;;13.50;12.00;;;16.50;99.90;;;;;;5074013;28;20211;-76
2021/07/03 06:41:45;;;;;;;12.10;10.90;;;16.60;99.90;;;;;;5068653;28;20188;-76
2021/07/03 06:44:10;;;;;;;11.10;10.03;;;16.60;99.90;;;;;;5072935;28;20834;-75
2021/07/03 06:46:36;;;;;;;9.80;8.77;;;16.50;99.90;;;;;;5072756;28;20630;-76
2021/07/03 06:49:02;;;;;;;10.63;8.17;;;16.60;99.90;;;;;;5072202;28;20185;-76
2021/07/03 06:51:28;;;;;;;7.90;7.20;;;16.70;99.90;;;;;;5072263;28;20729;-76
2021/07/03 06:53:54;;;;;;;9.97;9.00;;;16.80;99.90;;;;;;5071158;28;20197;-76
2021/07/03 06:56:20;;;;;;;9.67;8.40;;;16.90;99.90;;;;;;5072213;28;20264;-75
2021/07/03 06:58:46;;;;;;;8.73;7.53;;;16.90;99.90;;;;;;5072720;28;20442;-76
2021/07/03 07:01:11;;;;;;;8.07;7.23;;;17.10;99.90;;;;;;5069112;28;20431;-76
2021/07/03 07:03:37;;;;;;;6.83;6.10;;;17.30;99.90;;;;;;5070667;28;20200;-76
2021/07/03 07:06:03;;;;;;;6.63;6.03;;;17.40;99.90;;;;;;5072500;28;20191;-75
2021/07/03 07:08:28;;;;;;;6.23;5.67;;;17.40;99.90;;;;;;5068900;28;20188;-76
2021/07/03 07:10:54;;;;;;;6.80;5.50;;;17.50;99.90;;;;;;5060921;28;20258;-76
2021/07/03 07:13:20;;;;;;;7.00;5.30;;;17.50;99.90;;;;;;5063465;28;20216;-76
2021/07/03 07:15:45;;;;;;;7.30;5.87;;;17.50;99.90;;;;;;5069117;28;20177;-76
2021/07/03 07:18:11;;;;;;;7.37;5.00;;;17.50;99.90;;;;;;5062421;28;20176;-76
2021/07/03 07:20:37;;;;;;;6.47;5.37;;;17.50;99.90;;;;;;5063386;28;20610;-76
2021/07/03 07:23:02;;;;;;;5.00;4.60;;;17.50;99.90;;;;;;5066448;28;20184;-76
2021/07/03 07:25:28;;;;;;;5.33;4.97;;;17.60;99.90;;;;;;5067621;28;20180;-76
2021/07/03 07:27:54;;;;;;;4.63;4.33;;;17.70;99.90;;;;;;5066846;28;20507;-77
2021/07/03 07:30:21;;;;;;;5.40;4.90;;;17.80;99.90;;;;;;5065982;28;20188;-76
2021/07/03 07:32:47;;;;;;;4.97;4.60;;;18.00;99.90;;;;;;5068938;28;20665;-76
2021/07/03 07:35:13;;;;;;;5.10;4.67;;;18.10;99.90;;;;;;5065904;28;20928;-76
2021/07/03 07:37:39;;;;;;;4.07;3.63;;;18.30;99.90;;;;;;5068230;28;20523;-76
2021/07/03 07:40:05;;;;;;;7.47;5.40;;;18.40;99.90;;;;;;5066525;28;20496;-76
2021/07/03 07:42:31;;;;;;;6.50;4.60;;;18.40;99.90;;;;;;5080140;28;20703;-76
2021/07/03 07:44:57;;;;;;;5.23;4.73;;;18.50;99.90;;;;;;5067437;28;20442;-76
2021/07/03 07:47:23;;;;;;;4.50;4.10;;;18.60;99.90;;;;;;5064037;28;20797;-76
2021/07/03 07:49:49;;;;;;;4.50;4.10;;;18.60;99.90;;;;;;5065837;28;20172;-76
2021/07/03 07:52:17;;;;;;;5.00;3.60;;;18.60;99.90;;;;;;5064029;28;20496;-76
2021/07/03 07:54:43;;;;;;;6.50;3.87;;;18.70;99.90;;;;;;5065132;28;20201;-76
2021/07/03 07:57:09;;;;;;;4.27;3.87;;;18.80;99.90;;;;;;5064382;28;20996;-76
2021/07/03 07:59:34;;;;;;;4.20;3.90;;;19.00;99.90;;;;;;5069203;28;20534;-76
2021/07/03 08:02:00;;;;;;;4.40;4.10;;;19.10;99.90;;;;;;5064610;28;20181;-76
2021/07/03 08:04:26;;;;;;;5.77;4.40;;;19.10;99.90;;;;;;5064852;28;20177;-76
2021/07/03 08:06:51;;;;;;;4.57;4.27;;;19.00;99.90;;;;;;5064532;28;20210;-76
2021/07/03 08:09:17;;;;;;;5.13;4.70;;;18.90;99.90;;;;;;5065803;28;20187;-76
2021/07/03 08:11:43;;;;;;;4.70;4.30;;;18.90;99.90;;;;;;5065528;28;20334;-76
2021/07/03 08:14:09;;;;;;;5.20;4.70;;;19.00;99.90;;;;;;5061560;28;20257;-76
2021/07/03 08:16:35;;;;;;;4.40;4.10;;;19.10;99.90;;;;;;5064254;28;20899;-76
2021/07/03 08:19:01;;;;;;;6.70;4.27;;;19.20;99.90;;;;;;5066662;28;20180;-76
2021/07/03 08:21:27;;;;;;;7.13;4.40;;;19.20;99.90;;;;;;5066514;28;20189;-76
2021/07/03 08:23:53;;;;;;;5.40;4.90;;;19.30;99.90;;;;;;5065043;28;20435;-76
2021/07/03 08:26:18;;;;;;;6.03;4.40;;;19.60;99.90;;;;;;5063131;28;20185;-76
2021/07/03 08:28:44;;;;;;;4.80;4.20;;;19.60;99.90;;;;;;5061881;28;20458;-76
2021/07/03 08:31:10;;;;;;;4.80;4.33;;;19.80;99.90;;;;;;5059335;28;22866;-76
2021/07/03 08:33:36;;;;;;;4.83;3.40;;;20.00;99.90;;;;;;5065589;28;20273;-76
2021/07/03 08:36:02;;;;;;;5.57;4.50;;;20.20;99.90;;;;;;5065454;28;20426;-76
2021/07/03 08:38:27;;;;;;;4.40;4.10;;;20.30;99.90;;;;;;5063210;28;20255;-76
2021/07/03 08:40:55;;;;;;;3.73;3.43;;;20.20;99.90;;;;;;5065960;28;20560;-76
2021/07/03 08:43:21;;;;;;;4.10;3.70;;;20.20;99.90;;;;;;5057510;28;20185;-76
2021/07/03 08:45:46;;;;;;;3.83;3.53;;;20.30;99.90;;;;;;5064104;28;20805;-76
2021/07/03 08:48:20;;;;;;;3.40;3.20;;;20.30;99.90;;;;;;5066117;28;20275;-76
2021/07/03 08:50:46;;;;;;;3.30;3.00;;;20.60;99.90;;;;;;5068049;28;20181;-76
2021/07/03 08:53:12;;;;;;;3.80;3.50;;;20.80;99.90;;;;;;5078619;28;20458;-75
2021/07/03 08:55:38;;;;;;;3.40;3.13;;;20.80;99.90;;;;;;5059473;28;20805;-76
2021/07/03 08:58:05;;;;;;;3.60;3.40;;;20.70;99.90;;;;;;5063195;28;20177;-76
2021/07/03 09:00:42;;;;;;;4.40;4.00;;;20.70;99.90;;;;;;5064148;28;20207;-76
2021/07/03 09:03:16;;;;;;;4.70;4.30;;;20.60;99.90;;;;;;5066802;28;20459;-76
2021/07/03 09:05:52;;;;;;;4.50;4.10;;;20.50;99.90;;;;;;5081133;28;20794;-76
2021/07/03 09:08:20;;;;;;;4.50;3.20;;;20.50;99.90;;;;;;5066444;28;20451;-76
2021/07/03 09:10:47;;;;;;;4.03;3.70;;;20.50;99.90;;;;;;5061353;28;20451;-76
2021/07/03 09:13:13;;;;;;;5.23;3.50;;;20.60;99.90;;;;;;5065873;28;20893;-76
2021/07/03 09:15:41;;;;;;;5.80;4.43;;;20.60;99.90;;;;;;5065191;28;20423;-76
2021/07/03 09:18:12;;;;;;;3.93;3.40;;;20.70;99.90;;;;;;5063181;28;20505;-76
2021/07/03 09:20:50;;;;;;;4.03;3.73;;;20.70;99.90;;;;;;5062940;28;20431;-76
2021/07/03 09:23:22;;;;;;;4.17;3.83;;;20.80;99.90;;;;;;5062209;28;20423;-76
2021/07/03 09:25:51;;;;;;;4.13;3.83;;;20.80;99.90;;;;;;5058316;28;20434;-76
2021/07/03 09:28:18;;;;;;;4.07;3.73;;;20.50;99.90;;;;;;5074855;28;20441;-76
2021/07/03 09:30:46;;;;;;;4.23;3.83;;;20.10;99.90;;;;;;5066033;28;20464;-76
2021/07/03 09:33:22;;;;;;;3.20;3.00;;;20.00;99.90;;;;;;5064847;28;20435;-76
2021/07/03 09:35:55;;;;;;;3.53;3.23;;;20.30;99.90;;;;;;5068232;28;20737;-76
2021/07/03 09:38:31;;;;;;;4.47;3.23;;;20.60;99.90;;;;;;5071765;28;20802;-76
2021/07/03 09:41:24;;;;;;;4.20;2.30;;;20.80;99.90;;;;;;5069752;28;20946;-76
2021/07/03 09:43:50;;;;;;;2.80;2.60;;;20.80;99.90;;;;;;5068213;28;20529;-76
2021/07/03 09:46:22;;;;;;;3.57;3.27;;;21.00;99.90;;;;;;5069186;28;20513;-76
2021/07/03 09:48:49;;;;;;;2.60;2.37;;;21.10;99.90;;;;;;5070412;28;20183;-76
2021/07/03 09:51:15;;;;;;;3.50;3.17;;;21.20;99.90;;;;;;5071868;28;20454;-76
2021/07/03 09:53:42;;;;;;;3.60;3.30;;;21.10;99.90;;;;;;5063831;28;20435;-76
2021/07/03 09:56:08;;;;;;;3.40;3.10;;;21.30;99.90;;;;;;5070899;28;20630;-76
2021/07/03 09:58:35;;;;;;;4.83;3.30;;;21.20;99.90;;;;;;5071265;28;20422;-76
2021/07/03 10:01:00;;;;;;;2.80;2.60;;;21.30;99.90;;;;;;5071535;28;20652;-77
2021/07/03 10:03:26;;;;;;;3.10;2.70;;;21.10;99.90;;;;;;5069112;28;20454;-76
2021/07/03 10:05:56;;;;;;;2.67;2.57;;;20.90;99.90;;;;;;5070831;28;20192;-76
2021/07/03 10:08:24;;;;;;;3.20;3.00;;;21.20;99.90;;;;;;5069080;28;20423;-76
2021/07/03 10:10:55;;;;;;;3.30;3.10;;;21.60;99.90;;;;;;5068127;28;20547;-76
2021/07/03 10:13:22;;;;;;;3.20;2.50;;;22.20;99.90;;;;;;5086959;28;20414;-76
2021/07/03 10:15:49;;;;;;;3.87;3.13;;;22.30;99.90;;;;;;5069389;28;20446;-76
2021/07/03 10:18:21;;;;;;;2.90;2.70;;;22.00;99.90;;;;;;5070979;28;20438;-76
2021/07/03 10:20:48;;;;;;;3.33;3.03;;;21.80;99.90;;;;;;5085647;28;20437;-76
2021/07/03 10:23:14;;;;;;;3.07;2.87;;;21.80;99.90;;;;;;5071265;28;20426;-76
2021/07/03 10:25:44;;;;;;;3.03;2.93;;;22.10;99.90;;;;;;5066239;28;20437;-76
2021/07/03 10:28:12;;;;;;;3.47;3.17;;;22.30;99.90;;;;;;5066168;28;20256;-76
2021/07/03 10:30:48;;;;;;;5.80;3.27;;;22.40;99.90;;;;;;5066818;28;20574;-76
2021/07/03 10:33:19;;;;;;;2.93;2.60;;;22.60;99.90;;;;;;5066223;28;20442;-76
2021/07/03 10:35:53;;;;;;;3.33;3.10;;;22.50;99.90;;;;;;5066231;28;20511;-76
2021/07/03 10:38:27;;;;;;;3.03;2.87;;;22.30;99.90;;;;;;5064098;28;20455;-76
2021/07/03 10:41:00;;;;;;;3.10;2.90;;;22.40;99.90;;;;;;5065659;28;20464;-76
2021/07/03 10:43:26;;;;;;;3.23;2.97;;;22.90;99.90;;;;;;5067925;28;20426;-76
2021/07/03 10:45:54;;;;;;;3.33;3.07;;;22.70;99.90;;;;;;5070596;28;20430;-76
2021/07/03 10:48:25;;;;;;;2.70;2.50;;;22.60;99.90;;;;;;5085928;28;20172;-77
2021/07/03 10:50:54;;;;;;;3.30;2.70;;;22.70;99.90;;;;;;5066365;28;20446;-76
2021/07/03 10:53:29;;;;;;;2.90;2.67;;;23.10;99.90;;;;;;5070487;28;20426;-76
2021/07/03 10:56:14;;;;;;;5.20;3.00;;;23.10;99.90;;;;;;5071969;28;20418;-76
2021/07/03 10:58:43;;;;;;;2.67;2.57;;;23.00;99.90;;;;;;5067437;28;20415;-76
2021/07/03 11:01:14;;;;;;;2.80;2.60;;;23.00;99.90;;;;;;5071651;28;20434;-76
2021/07/03 11:03:50;;;;;;;3.07;2.87;;;23.20;99.90;;;;;;5067890;28;20426;-76
2021/07/03 11:06:20;;;;;;;2.83;2.63;;;23.40;99.90;;;;;;5071000;28;20426;-76
2021/07/03 11:08:47;;;;;;;3.20;2.93;;;23.80;99.90;;;;;;5084068;28;20435;-76
2021/07/03 11:11:16;;;;;;;2.60;2.40;;;24.30;99.90;;;;;;5070059;28;20470;-76
2021/07/03 11:13:44;;;;;;;2.60;2.50;;;24.30;99.90;;;;;;5071306;28;20892;-77
2021/07/03 11:16:14;;;;;;;3.70;2.90;;;24.30;99.90;;;;;;5070628;28;20465;-77
2021/07/03 11:18:45;;;;;;;3.93;3.20;;;24.40;99.90;;;;;;5066182;28;20431;-76
2021/07/03 11:21:13;;;;;;;2.83;2.63;;;24.20;99.90;;;;;;5071702;28;21037;-78
2021/07/03 11:23:39;;;;;;;2.63;2.43;;;24.10;99.90;;;;;;5066383;28;20993;-77
2021/07/03 11:26:13;;;;;;;3.20;3.00;;;24.00;99.90;;;;;;5062011;28;20495;-77
2021/07/03 11:28:40;;;;;;;2.70;2.60;;;24.00;99.90;;;;;;5067751;28;20459;-77
2021/07/03 11:31:06;;;;;;;2.77;2.57;;;24.10;99.90;;;;;;5066899;28;20451;-77
2021/07/03 11:33:34;;;;;;;2.40;2.20;;;24.30;99.90;;;;;;5066581;28;20448;-78
2021/07/03 11:36:00;;;;;;;2.47;2.27;;;24.60;99.90;;;;;;5066070;28;20445;-78
2021/07/03 11:38:27;;;;;;;2.67;2.57;;;24.50;99.90;;;;;;5063706;28;20439;-77
2021/07/03 11:40:59;;;;;;;2.80;2.60;;;24.40;99.90;;;;;;5070799;28;20434;-78
2021/07/03 11:43:25;;;;;;;2.73;2.63;;;24.40;99.90;;;;;;5067388;28;20431;-78
2021/07/03 11:45:53;;;;;;;2.90;2.70;;;24.50;99.90;;;;;;5067354;28;20470;-78
2021/07/03 11:48:21;;;;;;;2.67;2.47;;;24.80;99.90;;;;;;5064723;28;20427;-77
2021/07/03 11:50:48;;;;;;;2.77;2.57;;;25.10;99.90;;;;;;5062683;28;20462;-78
2021/07/03 11:53:16;;;;;;;4.43;2.77;;;25.10;99.90;;;;;;5064992;28;20427;-77
2021/07/03 11:55:50;;;;;;;4.97;2.57;;;25.00;99.90;;;;;;5063622;28;20423;-78
2021/07/03 11:58:30;;;;;;;2.50;2.40;;;25.00;99.90;;;;;;5082530;28;20767;-78
2021/07/03 12:01:02;;;;;;;3.87;2.33;;;25.00;99.90;;;;;;5064554;28;20886;-78
2021/07/03 12:03:31;;;;;;;2.70;2.50;;;25.30;99.90;;;;;;5067126;28;20495;-78
2021/07/03 12:05:59;;;;;;;2.80;2.60;;;25.30;99.90;;;;;;5061377;28;20794;-78
2021/07/03 12:08:35;;;;;;;3.13;2.93;;;25.00;99.90;;;;;;5066985;28;20501;-78
2021/07/03 12:11:03;;;;;;;2.80;2.60;;;24.40;99.90;;;;;;5078242;28;20462;-78
2021/07/03 12:13:30;;;;;;;2.60;2.40;;;24.10;99.90;;;;;;5060209;28;20451;-78
2021/07/03 12:15:59;;;;;;;2.80;2.60;;;23.90;99.90;;;;;;5060530;28;20927;-78
2021/07/03 12:18:32;;;;;;;2.40;2.30;;;23.70;99.90;;;;;;5079223;28;20434;-78
2021/07/03 12:21:16;;;;;;;2.63;2.43;;;23.80;99.90;;;;;;5065288;28;20434;-78
2021/07/03 12:23:48;;;;;;;2.37;2.17;;;24.00;99.90;;;;;;5065772;28;20423;-78
2021/07/03 12:26:30;;;;;;;2.33;2.23;;;24.40;99.90;;;;;;5069929;28;20445;-78
2021/07/03 12:29:10;;;;;;;3.03;2.90;;;24.90;99.90;;;;;;5069658;28;20842;-78
2021/07/03 12:31:39;;;;;;;2.53;2.30;;;25.10;99.90;;;;;;5066951;28;20538;-78
2021/07/03 12:34:09;;;;;;;2.80;2.60;;;25.30;99.90;;;;;;5069097;28;20497;-78
2021/07/03 12:36:37;;;;;;;2.80;2.60;;;25.50;99.90;;;;;;5070455;28;20422;-78
2021/07/03 12:39:13;;;;;;;3.00;2.80;;;25.30;99.90;;;;;;5086555;28;20514;-78
2021/07/03 12:41:42;;;;;;;2.27;2.07;;;24.70;99.90;;;;;;5069538;28;20427;-78
2021/07/03 12:44:08;;;;;;;2.90;2.70;;;24.90;99.90;;;;;;5070782;28;20496;-78